Pagina principală
METAR-TAF:

METAR-TAF

Aeroporturi :

Smith Field

Siloam Springs, Arkansas, Statele Unite ale Americii

Latitudine: 36-12N, longitudine: 094-29W, elevație: 300 m

Observații meteo curente

Raportul a fost făcut în urmă cu 21 de minute, la 01:03 UTC
Vânt 14 kt de la Sud cu rafale de până la 27 kt
Temperatură 21°C
Umiditate 88%
Presiune 1008 hPa
Vizibilitate: 2.0 km
Nori puțini la o înălțime de 700 picior
Nori fragmentați la o înălțime de 1600 picior
Total acoperit la o înălțime de 5500 picior
oraj, ploaie puternică, aer cețos

METAR: KSLG 220103Z AUTO 17014G27KT 1 1/4SM +TSRA BR FEW007 BKN016 OVC055 21/19 A2978 RMK AO2 PK WND 24027/0057 PNO $

Ora: 20:24 (01:24 UTC)


TAF: lipsă

Observații și prognoze meteo pentru peste 4.000 de aeroporturi (rapoarte METAR și TAF).

Stațiile disponibile sunt reprezentate pe hartă prin puncte galbene și roșii.

Țineți indicatorul mouse-ului pe punctul dorit pentru a vedea denumirea stației.

Apoi, faceți clic pentru a vedea observațiile și prognozele meteorologice.

Pentru a schimba harta: Pentru mărire, faceți clic pe butoanele verzi cu cruce neagră; pentru micșorare, pe butonul verde cu o liniuță; pentru hărți învecinate, pe săgețile verzi.


METAR-TAF: